Cottage Grove, Minnesota
Current Conditions -  °F | °C
As of 1:10 PM on Monday 20 Oct 2014 (Local Time) from KSGS Reporting Station
Clear Clear  
Wind Chill: 62°   Ceiling: Unl
Heat Index: 62°   Visibility: 10mi
Dew Point: 42°   Wind: 14mph
Humidity: 48%   Direction: 330°NNW
Pressure: 29.97"   Gusts: 20mph
Location:  44.83°N, 92.95°W
Report Text: KSGS 201810Z AUTO 33012G17KT 10SM CLR 17/06 A2997 RMK AO2 T01660055
Loading
Personal Weather Stations






























Interactive Weather Map
Tropical Storm Tracking
New forecast layout! Learn more

10-Day Weather Forecast

Advertisements
Track Severe Weather on mobile